createdAt,value
2023-03-17T00:00:58.808Z,0.62
2023-03-17T00:04:09.377Z,0.51
2023-03-17T00:07:22.074Z,0.32
2023-03-17T00:10:53.021Z,0.33
2023-03-17T00:14:15.370Z,0.20
2023-03-17T00:17:31.785Z,0.13
2023-03-17T00:20:41.956Z,0.10
2023-03-17T00:23:50.710Z,0.19
2023-03-17T00:26:53.314Z,0.01
2023-03-17T00:30:12.728Z,-0.07
2023-03-17T00:33:27.662Z,-0.08
2023-03-17T00:36:34.321Z,0.06
2023-03-17T00:39:46.120Z,-0.23
2023-03-17T00:43:03.410Z,-0.30
2023-03-17T00:46:50.556Z,-0.45
2023-03-17T00:50:00.118Z,-0.08
2023-03-17T00:53:10.910Z,-0.11
2023-03-17T00:56:20.625Z,-0.21
2023-03-17T01:00:10.373Z,-0.27
2023-03-17T01:03:13.360Z,-0.24
2023-03-17T01:06:16.891Z,-0.36
2023-03-17T01:09:24.575Z,-0.39
2023-03-17T01:12:29.083Z,-0.39
2023-03-17T01:15:34.284Z,-0.38
2023-03-17T01:18:49.092Z,-0.33
2023-03-17T01:21:52.412Z,-0.29
2023-03-17T01:25:15.109Z,-0.43
2023-03-17T01:28:19.467Z,-0.41
2023-03-17T01:31:24.297Z,-0.53
2023-03-17T01:34:41.916Z,-0.63
2023-03-17T01:37:46.911Z,-0.67
2023-03-17T01:40:57.454Z,-0.69
2023-03-17T01:44:05.748Z,-0.54
2023-03-17T01:47:24.888Z,-0.66
2023-03-17T01:50:35.660Z,-0.73
2023-03-17T01:53:50.004Z,-0.65
2023-03-17T01:57:01.139Z,-0.64
2023-03-17T02:00:25.450Z,-0.77
2023-03-17T02:03:34.564Z,-0.75
2023-03-17T02:06:57.360Z,-0.70
2023-03-17T02:10:07.965Z,-0.85
2023-03-17T02:13:19.164Z,-0.76
2023-03-17T02:16:32.334Z,-0.85
2023-03-17T02:19:41.075Z,-0.60
2023-03-17T02:22:52.613Z,-0.74
2023-03-17T02:26:13.930Z,-0.71
2023-03-17T02:29:22.102Z,-0.73
2023-03-17T02:32:49.183Z,-0.82
2023-03-17T02:35:56.259Z,-1.01
2023-03-17T02:39:01.602Z,-1.05
2023-03-17T02:42:09.400Z,-1.18
2023-03-17T02:45:30.788Z,-1.19
2023-03-17T02:48:50.671Z,-1.17
2023-03-17T02:51:56.268Z,-1.14
2023-03-17T02:55:15.776Z,-1.12
2023-03-17T02:58:42.653Z,-1.21
2023-03-17T03:01:52.771Z,-1.22
2023-03-17T03:05:03.725Z,-1.28
2023-03-17T03:08:19.305Z,-1.42
2023-03-17T03:11:33.284Z,-1.33
2023-03-17T03:14:40.991Z,-1.20
2023-03-17T03:17:47.484Z,-1.33
2023-03-17T03:20:57.911Z,-1.26
2023-03-17T03:24:26.895Z,-1.17
2023-03-17T03:27:31.774Z,-1.27
2023-03-17T03:30:38.874Z,-1.30
2023-03-17T03:33:47.081Z,-1.43
2023-03-17T03:36:57.776Z,-1.58
2023-03-17T03:40:00.192Z,-1.67
2023-03-17T03:43:22.074Z,-1.57
2023-03-17T03:46:39.931Z,-1.52
2023-03-17T03:49:45.987Z,-1.48
2023-03-17T03:52:50.456Z,-1.51
2023-03-17T03:55:58.295Z,-1.50
2023-03-17T03:59:06.010Z,-1.58
2023-03-17T04:02:09.530Z,-1.53
2023-03-17T04:05:21.147Z,-1.56
2023-03-17T04:08:35.184Z,-1.44
2023-03-17T04:11:40.640Z,-1.46
2023-03-17T04:14:44.571Z,-1.29
2023-03-17T04:17:51.362Z,-1.48
2023-03-17T04:21:07.422Z,-1.37
2023-03-17T04:24:18.005Z,-1.27
2023-03-17T04:27:25.995Z,-1.28
2023-03-17T04:30:33.625Z,-1.39
2023-03-17T04:33:42.417Z,-1.58
2023-03-17T04:37:01.360Z,-1.60
2023-03-17T04:40:31.812Z,-1.44
2023-03-17T04:43:40.532Z,-1.28
2023-03-17T04:46:50.352Z,-1.53
2023-03-17T04:49:53.757Z,-1.54
2023-03-17T04:52:58.465Z,-1.55
2023-03-17T04:56:03.129Z,-1.46
2023-03-17T04:59:21.020Z,-1.41
2023-03-17T05:02:31.803Z,-1.37
2023-03-17T05:05:45.680Z,-1.36
2023-03-17T05:09:04.629Z,-1.39
2023-03-17T05:12:11.707Z,-1.33
2023-03-17T05:15:17.104Z,-1.22
2023-03-17T05:18:25.112Z,-1.06
2023-03-17T05:21:35.499Z,-0.79
2023-03-17T05:24:38.876Z,-0.54
2023-03-17T05:27:41.592Z,-0.29
2023-03-17T05:30:48.937Z,0.01
2023-03-17T05:34:02.302Z,0.06
2023-03-17T05:37:22.084Z,0.38
2023-03-17T05:40:27.637Z,0.48
2023-03-17T05:43:44.047Z,0.75
2023-03-17T05:47:06.681Z,1.12
2023-03-17T05:50:20.429Z,1.36
2023-03-17T05:53:25.262Z,1.64
2023-03-17T05:56:37.447Z,1.30
2023-03-17T05:59:48.976Z,1.50
2023-03-17T06:03:05.760Z,2.00
2023-03-17T06:06:15.478Z,2.16
2023-03-17T06:09:28.090Z,2.06
2023-03-17T06:12:35.365Z,2.43
2023-03-17T06:15:40.807Z,2.61
2023-03-17T06:18:50.417Z,2.78
2023-03-17T06:22:01.107Z,2.95
2023-03-17T06:25:13.082Z,3.07
2023-03-17T06:28:17.314Z,3.11
2023-03-17T06:31:22.423Z,3.28
2023-03-17T06:34:37.633Z,4.05
2023-03-17T06:37:46.696Z,3.99
2023-03-17T06:40:54.130Z,3.88
2023-03-17T06:44:08.947Z,3.62
2023-03-17T06:47:11.563Z,4.36
2023-03-17T06:50:28.920Z,4.67
2023-03-17T06:53:34.154Z,3.47
2023-03-17T06:56:39.469Z,4.14
2023-03-17T06:59:50.175Z,4.87
2023-03-17T07:02:55.353Z,5.35
2023-03-17T07:06:00.902Z,5.46
2023-03-17T07:09:12.684Z,5.23
2023-03-17T07:12:15.922Z,5.78
2023-03-17T07:15:25.228Z,7.17
2023-03-17T07:18:43.900Z,6.47
2023-03-17T07:22:15.157Z,6.73
2023-03-17T07:25:31.618Z,7.17
2023-03-17T07:28:48.328Z,7.67
2023-03-17T07:32:02.276Z,8.61
2023-03-17T07:35:17.736Z,8.11
2023-03-17T07:38:34.379Z,8.12
2023-03-17T07:41:46.954Z,8.36
2023-03-17T07:44:54.613Z,8.29
2023-03-17T07:48:00.011Z,9.40
2023-03-17T07:51:12.797Z,9.19
2023-03-17T07:54:35.345Z,9.08
2023-03-17T07:57:41.438Z,9.24
2023-03-17T08:00:46.812Z,9.74
2023-03-17T08:03:52.603Z,9.97
2023-03-17T08:07:37.579Z,9.80
2023-03-17T08:10:53.019Z,10.27
2023-03-17T08:13:55.639Z,10.20
2023-03-17T08:17:15.313Z,10.54
2023-03-17T08:20:23.408Z,10.33
2023-03-17T08:23:28.563Z,10.44
2023-03-17T08:26:45.845Z,10.23
2023-03-17T08:29:53.830Z,10.26
2023-03-17T08:33:20.368Z,10.19
2023-03-17T08:36:41.053Z,10.43
2023-03-17T08:43:15.445Z,10.41
2023-03-17T08:46:28.592Z,10.32
2023-03-17T08:49:36.227Z,10.46
2023-03-17T08:52:58.834Z,9.73
2023-03-17T08:56:08.240Z,9.98
2023-03-17T08:59:35.021Z,10.01
2023-03-17T09:02:43.158Z,10.64
2023-03-17T09:05:55.577Z,11.20
2023-03-17T09:09:11.147Z,11.31
2023-03-17T09:12:16.539Z,10.64
2023-03-17T09:15:44.388Z,10.78
2023-03-17T09:18:50.502Z,11.36
2023-03-17T09:21:54.398Z,10.83
2023-03-17T09:24:56.768Z,11.20
2023-03-17T09:28:03.231Z,11.51
2023-03-17T09:31:14.256Z,10.17
2023-03-17T09:34:19.105Z,10.27
2023-03-17T09:37:24.337Z,10.81
2023-03-17T09:41:30.431Z,11.22
2023-03-17T09:45:28.178Z,11.63
2023-03-17T09:48:56.500Z,11.96
2023-03-17T09:52:05.332Z,11.94
2023-03-17T09:55:29.716Z,11.41
2023-03-17T09:59:04.158Z,11.97
2023-03-17T10:02:35.669Z,11.68
2023-03-17T10:05:51.246Z,12.72
2023-03-17T10:09:27.215Z,12.00
2023-03-17T10:13:10.820Z,11.48
2023-03-17T10:16:46.976Z,12.03
2023-03-17T10:19:59.253Z,11.60
2023-03-17T10:23:08.414Z,12.34
2023-03-17T10:26:44.613Z,11.23
2023-03-17T10:29:57.122Z,11.34
2023-03-17T10:33:11.746Z,11.14
2023-03-17T10:36:48.509Z,11.57
2023-03-17T10:39:58.090Z,11.30
2023-03-17T10:43:09.866Z,11.44
2023-03-17T10:47:11.832Z,11.98
2023-03-17T10:50:35.553Z,11.56
2023-03-17T10:53:46.940Z,12.26
2023-03-17T11:00:40.163Z,11.56
2023-03-17T11:03:48.811Z,11.54
2023-03-17T11:10:23.261Z,11.48
2023-03-17T11:13:30.680Z,11.59
2023-03-17T11:16:39.638Z,11.25
2023-03-17T11:19:54.946Z,11.28
2023-03-17T11:23:12.386Z,11.05
2023-03-17T11:26:41.309Z,11.37
2023-03-17T11:30:18.362Z,11.29
2023-03-17T11:33:56.754Z,11.33
2023-03-17T11:37:19.688Z,11.22
2023-03-17T11:40:33.161Z,11.33
2023-03-17T11:43:51.247Z,11.66
2023-03-17T11:47:25.713Z,11.67
2023-03-17T11:51:00.478Z,11.46
2023-03-17T11:54:43.440Z,10.99
2023-03-17T11:57:57.003Z,11.28
2023-03-17T12:01:09.125Z,11.53
2023-03-17T12:04:24.292Z,11.47
2023-03-17T12:07:35.789Z,12.72
2023-03-17T12:10:47.718Z,11.02
2023-03-17T12:14:03.496Z,10.82
2023-03-17T12:17:36.690Z,11.46
2023-03-17T12:20:54.238Z,11.34
2023-03-17T12:24:04.077Z,10.90
2023-03-17T12:27:23.174Z,11.43
2023-03-17T12:30:29.332Z,10.86
2023-03-17T12:33:50.726Z,10.97
2023-03-17T12:36:54.398Z,10.77
2023-03-17T12:40:18.558Z,11.28
2023-03-17T12:43:45.609Z,11.18
2023-03-17T12:47:15.808Z,10.99
2023-03-17T12:50:40.928Z,10.74
2023-03-17T12:53:46.630Z,10.72
2023-03-17T12:56:50.513Z,10.80
2023-03-17T13:00:06.501Z,11.10
2023-03-17T13:03:26.331Z,11.43
2023-03-17T13:06:39.467Z,10.81
2023-03-17T13:09:46.999Z,11.02
2023-03-17T13:12:49.321Z,11.12
2023-03-17T13:15:58.392Z,11.20
2023-03-17T13:19:17.461Z,10.92
2023-03-17T13:22:22.616Z,10.76
2023-03-17T13:25:41.803Z,10.84
2023-03-17T13:28:54.903Z,11.12
2023-03-17T13:32:19.724Z,11.36
2023-03-17T13:35:38.045Z,11.16
2023-03-17T13:39:04.890Z,11.25
2023-03-17T13:42:55.959Z,10.77
2023-03-17T13:46:30.639Z,10.83
2023-03-17T13:49:36.335Z,10.86
2023-03-17T13:52:41.610Z,10.85
2023-03-17T13:56:16.688Z,10.60
2023-03-17T13:59:33.101Z,10.81
2023-03-17T14:02:39.346Z,11.00
2023-03-17T14:05:46.854Z,11.02
2023-03-17T14:09:01.083Z,11.16
2023-03-17T14:12:19.838Z,10.94
2023-03-17T14:15:31.801Z,10.73
2023-03-17T14:18:38.024Z,10.98
2023-03-17T14:21:40.850Z,10.60
2023-03-17T14:24:43.318Z,10.79
2023-03-17T14:27:49.093Z,10.94
2023-03-17T14:30:58.884Z,10.84
2023-03-17T14:34:01.556Z,10.91
2023-03-17T14:37:04.946Z,11.12
2023-03-17T14:40:22.924Z,11.15
2023-03-17T14:43:25.493Z,10.85
2023-03-17T14:46:32.215Z,10.61
2023-03-17T14:49:34.778Z,10.66
2023-03-17T14:52:37.232Z,10.68
2023-03-17T14:55:43.498Z,10.65
2023-03-17T14:58:48.732Z,10.70
2023-03-17T15:01:59.893Z,10.70
2023-03-17T15:05:25.623Z,10.86
2023-03-17T15:08:48.279Z,10.84
2023-03-17T15:11:50.599Z,10.85
2023-03-17T15:15:26.698Z,10.89
2023-03-17T15:18:29.224Z,10.95
2023-03-17T15:21:40.900Z,10.90
2023-03-17T15:24:44.210Z,10.74
2023-03-17T15:27:48.156Z,10.70
2023-03-17T15:30:53.512Z,10.47
2023-03-17T15:33:57.625Z,10.54
2023-03-17T15:36:59.993Z,10.49
2023-03-17T15:40:05.822Z,10.31
2023-03-17T15:43:14.035Z,10.30
2023-03-17T15:46:27.881Z,10.13
2023-03-17T15:49:30.706Z,10.08
2023-03-17T15:52:33.436Z,9.99
2023-03-17T15:55:35.750Z,10.12
2023-03-17T15:58:37.974Z,10.02
2023-03-17T16:01:40.979Z,9.97
2023-03-17T16:04:43.395Z,10.07
2023-03-17T16:07:47.346Z,9.97
2023-03-17T16:10:50.133Z,10.01
2023-03-17T16:13:52.452Z,9.86
2023-03-17T16:16:54.904Z,9.78
2023-03-17T16:19:57.598Z,9.60
2023-03-17T16:23:07.535Z,9.63
2023-03-17T16:26:16.277Z,9.67
2023-03-17T16:29:20.522Z,9.74
2023-03-17T16:32:22.754Z,9.57
2023-03-17T16:35:26.279Z,9.50
2023-03-17T16:38:31.353Z,9.43
2023-03-17T16:41:35.395Z,9.24
2023-03-17T16:44:37.785Z,9.14
2023-03-17T16:47:40.021Z,9.24
2023-03-17T16:50:43.281Z,9.19
2023-03-17T16:53:46.018Z,9.15
2023-03-17T16:56:48.393Z,9.10
2023-03-17T16:59:51.325Z,9.11
2023-03-17T17:02:54.122Z,9.06
2023-03-17T17:05:56.374Z,8.88
2023-03-17T17:08:58.623Z,8.90
2023-03-17T17:12:01.014Z,8.86
2023-03-17T17:15:03.504Z,8.94
2023-03-17T17:18:11.227Z,8.86
2023-03-17T17:21:13.718Z,8.89
2023-03-17T17:24:16.143Z,8.86
2023-03-17T17:27:21.206Z,8.73
2023-03-17T17:30:28.067Z,8.49
2023-03-17T17:33:30.363Z,8.28
2023-03-17T17:36:32.785Z,8.22
2023-03-17T17:39:35.283Z,8.23
2023-03-17T17:42:37.836Z,8.24
2023-03-17T17:45:40.298Z,8.13
2023-03-17T17:48:42.610Z,7.89
2023-03-17T17:51:45.004Z,7.76
2023-03-17T17:54:47.366Z,8.01
2023-03-17T17:57:52.271Z,7.96
2023-03-17T18:00:57.202Z,7.86
2023-03-17T18:03:59.555Z,7.94
2023-03-17T18:07:01.863Z,7.86
2023-03-17T18:10:05.847Z,7.69
2023-03-17T18:13:08.297Z,7.64
2023-03-17T18:16:15.630Z,7.63
2023-03-17T18:19:18.243Z,7.59
2023-03-17T18:22:21.616Z,7.45
2023-03-17T18:25:27.231Z,7.52
2023-03-17T18:28:30.746Z,7.39
2023-03-17T18:31:41.273Z,7.41
2023-03-17T18:34:46.370Z,7.41
2023-03-17T18:37:50.675Z,7.34
2023-03-17T18:40:53.047Z,7.20
2023-03-17T18:43:55.443Z,7.15
2023-03-17T18:46:57.898Z,7.08
2023-03-17T18:50:00.203Z,7.01
2023-03-17T18:53:02.470Z,6.82
2023-03-17T18:56:05.143Z,7.03
2023-03-17T18:59:07.498Z,7.00
2023-03-17T19:02:09.860Z,6.55
2023-03-17T19:05:12.857Z,6.53
2023-03-17T19:08:16.667Z,6.60
2023-03-17T19:11:21.619Z,6.53
2023-03-17T19:14:23.892Z,6.48
2023-03-17T19:17:26.174Z,6.58
2023-03-17T19:20:29.071Z,6.46
2023-03-17T19:23:33.549Z,6.37
2023-03-17T19:26:35.767Z,6.21
2023-03-17T19:29:37.965Z,6.17
2023-03-17T19:32:40.595Z,6.27
2023-03-17T19:35:48.194Z,6.10
2023-03-17T19:38:50.734Z,6.15
2023-03-17T19:41:55.238Z,6.05
2023-03-17T19:44:57.560Z,5.99
2023-03-17T19:47:59.912Z,6.15
2023-03-17T19:51:02.183Z,5.99
2023-03-17T19:54:05.438Z,6.06
2023-03-17T19:57:07.663Z,5.86
2023-03-17T20:00:11.590Z,5.94
2023-03-17T20:03:14.983Z,5.90
2023-03-17T20:06:17.591Z,5.97
2023-03-17T20:09:19.874Z,5.82
2023-03-17T20:12:22.212Z,5.67
2023-03-17T20:15:24.442Z,5.44
2023-03-17T20:18:26.730Z,5.47
2023-03-17T20:21:29.675Z,5.57
2023-03-17T20:24:34.497Z,5.56
2023-03-17T20:27:37.060Z,5.67
2023-03-17T20:30:40.212Z,5.60
2023-03-17T20:33:42.663Z,5.44
2023-03-17T20:36:45.085Z,5.51
2023-03-17T20:39:47.493Z,5.24
2023-03-17T20:42:49.779Z,5.12
2023-03-17T20:45:53.173Z,5.15
2023-03-17T20:49:02.050Z,5.24
2023-03-17T20:52:06.335Z,4.94
2023-03-17T20:55:12.075Z,4.92
2023-03-17T20:58:14.378Z,4.81
2023-03-17T21:01:20.778Z,4.76
2023-03-17T21:04:23.303Z,4.52
2023-03-17T21:07:26.418Z,4.27
2023-03-17T21:10:28.710Z,4.26
2023-03-17T21:13:31.438Z,4.15
2023-03-17T21:16:35.142Z,4.09
2023-03-17T21:19:38.201Z,3.92
2023-03-17T21:22:41.043Z,3.96
2023-03-17T21:25:43.578Z,4.02
2023-03-17T21:28:45.938Z,3.91
2023-03-17T21:31:48.452Z,3.85
2023-03-17T21:34:50.955Z,3.65
2023-03-17T21:37:53.523Z,3.56
2023-03-17T21:40:56.985Z,3.70
2023-03-17T21:44:00.403Z,3.58
2023-03-17T21:47:03.102Z,3.50
2023-03-17T21:50:05.850Z,3.46
2023-03-17T21:53:09.330Z,3.64
2023-03-17T21:56:12.600Z,4.03
2023-03-17T21:59:15.906Z,4.02
2023-03-17T22:02:18.292Z,3.94
2023-03-17T22:05:20.658Z,3.70
2023-03-17T22:08:23.544Z,3.80
2023-03-17T22:11:25.965Z,3.84
2023-03-17T22:14:28.247Z,3.77
2023-03-17T22:17:31.341Z,3.71
2023-03-17T22:20:33.850Z,3.84
2023-03-17T22:23:41.352Z,4.08
2023-03-17T22:26:43.687Z,4.30
2023-03-17T22:29:46.760Z,4.38
2023-03-17T22:32:50.134Z,4.51
2023-03-17T22:35:52.447Z,4.53
2023-03-17T22:38:56.595Z,4.56
2023-03-17T22:41:58.809Z,4.33
2023-03-17T22:45:01.056Z,3.94
2023-03-17T22:48:03.464Z,3.64
2023-03-17T22:51:16.517Z,3.43
2023-03-17T22:54:18.812Z,3.44
2023-03-17T22:57:21.575Z,3.51
2023-03-17T23:00:25.753Z,3.35
2023-03-17T23:03:28.939Z,3.16
2023-03-17T23:06:31.352Z,3.07
2023-03-17T23:09:33.742Z,2.91
2023-03-17T23:12:36.105Z,2.63
2023-03-17T23:15:38.575Z,2.53
2023-03-17T23:18:41.729Z,2.46
2023-03-17T23:21:44.289Z,2.41
2023-03-17T23:24:47.440Z,2.38
2023-03-17T23:27:49.842Z,2.50
2023-03-17T23:30:53.366Z,2.53
2023-03-17T23:33:55.824Z,2.46
2023-03-17T23:36:58.157Z,2.52
2023-03-17T23:40:00.907Z,2.39
2023-03-17T23:43:05.593Z,2.21
2023-03-17T23:46:08.538Z,2.15
2023-03-17T23:49:12.294Z,2.16
2023-03-17T23:52:15.572Z,2.03
2023-03-17T23:55:18.834Z,1.82
2023-03-17T23:58:21.976Z,1.72
